createdAt,value
2019-05-09T00:02:40.886Z,100697.86
2019-05-09T00:07:46.347Z,100682.07
2019-05-09T00:12:53.908Z,100675.19
2019-05-09T00:17:58.962Z,100680.42
2019-05-09T00:23:04.578Z,100677.02
2019-05-09T00:28:10.343Z,100663.38
2019-05-09T00:33:17.450Z,100661.63
2019-05-09T00:38:24.639Z,100652.55
2019-05-09T00:43:30.205Z,100654.99
2019-05-09T00:48:38.274Z,100638.89
2019-05-09T00:53:45.739Z,100642.39
2019-05-09T00:58:53.584Z,100639.44
2019-05-09T01:03:58.495Z,100631.44
2019-05-09T01:09:05.396Z,100630.55
2019-05-09T01:14:11.062Z,100629.41
2019-05-09T01:19:16.248Z,100609.00
2019-05-09T01:24:23.243Z,100609.00
2019-05-09T01:29:30.094Z,100610.61
2019-05-09T01:34:36.679Z,100598.08
2019-05-09T01:39:43.499Z,100599.13
2019-05-09T01:44:49.252Z,100592.01
2019-05-09T01:49:54.620Z,100583.57
2019-05-09T01:55:00.094Z,100572.75
2019-05-09T02:00:09.141Z,100561.45
2019-05-09T02:05:14.592Z,100556.06
2019-05-09T02:10:20.055Z,100548.34
2019-05-09T02:15:34.160Z,100543.05
2019-05-09T02:20:40.464Z,100538.53
2019-05-09T02:25:45.853Z,100523.30
2019-05-09T02:30:54.845Z,100521.23
2019-05-09T02:36:02.036Z,100500.47
2019-05-09T02:41:08.553Z,100499.81
2019-05-09T02:46:18.870Z,100491.09
2019-05-09T02:51:23.310Z,100484.05
2019-05-09T02:56:29.987Z,100492.66
2019-05-09T03:01:40.561Z,100479.02
2019-05-09T03:06:48.890Z,100484.34
2019-05-09T03:11:54.147Z,100480.53
2019-05-09T03:16:59.975Z,100474.17
2019-05-09T03:22:12.871Z,100475.41
2019-05-09T03:27:28.505Z,100470.00
2019-05-09T03:32:32.888Z,100459.78
2019-05-09T03:37:38.148Z,100463.86
2019-05-09T03:42:43.937Z,100463.72
2019-05-09T03:47:52.664Z,100456.66
2019-05-09T03:52:58.066Z,100458.64
2019-05-09T03:58:10.672Z,100457.81
2019-05-09T04:03:19.931Z,100450.72
2019-05-09T04:08:23.328Z,100451.99
2019-05-09T04:13:30.418Z,100447.17
2019-05-09T04:18:37.694Z,100436.99
2019-05-09T04:23:42.817Z,100431.41
2019-05-09T04:28:48.078Z,100434.74
2019-05-09T04:33:53.879Z,100428.59
2019-05-09T04:38:59.349Z,100431.53
2019-05-09T04:44:14.186Z,100423.09
2019-05-09T04:49:13.649Z,100416.37
2019-05-09T04:54:19.385Z,100419.34
2019-05-09T04:59:24.682Z,100409.02
2019-05-09T05:04:30.553Z,100413.29
2019-05-09T05:09:37.953Z,100408.89
2019-05-09T05:14:43.003Z,100414.19
2019-05-09T05:19:49.370Z,100409.28
2019-05-09T05:24:59.567Z,100398.27
2019-05-09T05:30:07.343Z,100400.47
2019-05-09T05:35:17.918Z,100401.41
2019-05-09T05:40:23.280Z,100392.78
2019-05-09T05:45:30.620Z,100390.23
2019-05-09T05:50:38.233Z,100378.25
2019-05-09T05:55:43.343Z,100389.31
2019-05-09T06:00:48.854Z,100389.13
2019-05-09T06:05:54.715Z,100370.13
2019-05-09T06:11:00.705Z,100370.81
2019-05-09T06:16:08.439Z,100367.42
2019-05-09T06:21:13.379Z,100361.56
2019-05-09T06:26:19.025Z,100367.27
2019-05-09T06:31:24.132Z,100381.50
2019-05-09T06:36:29.550Z,100374.12
2019-05-09T06:41:34.670Z,100372.87
2019-05-09T06:46:41.694Z,100367.23
2019-05-09T06:51:47.681Z,100367.35
2019-05-09T06:56:53.357Z,100371.12
2019-05-09T07:02:08.245Z,100359.95
2019-05-09T07:07:14.998Z,100370.43
2019-05-09T07:12:20.219Z,100365.74
2019-05-09T07:17:31.887Z,100370.03
2019-05-09T07:22:39.265Z,100363.14
2019-05-09T07:27:48.327Z,100360.62
2019-05-09T07:33:00.725Z,100363.34
2019-05-09T07:38:08.274Z,100355.09
2019-05-09T07:43:13.023Z,100354.70
2019-05-09T07:48:18.217Z,100355.08
2019-05-09T07:53:23.633Z,100338.96
2019-05-09T07:58:29.112Z,100339.84
2019-05-09T08:03:34.529Z,100334.57
2019-05-09T08:08:40.100Z,100326.66
2019-05-09T08:13:45.214Z,100332.30
2019-05-09T08:18:51.118Z,100333.63
2019-05-09T08:23:57.848Z,100320.00
2019-05-09T08:29:03.390Z,100313.78
2019-05-09T08:34:08.688Z,100313.15
2019-05-09T08:39:14.121Z,100306.44
2019-05-09T08:44:19.757Z,100318.32
2019-05-09T08:49:28.651Z,100304.75
2019-05-09T08:54:44.515Z,100303.44
2019-05-09T08:59:50.864Z,100302.34
2019-05-09T09:04:58.312Z,100297.50
2019-05-09T09:10:04.555Z,100290.98
2019-05-09T09:15:10.585Z,100284.94
2019-05-09T09:20:18.194Z,100283.03
2019-05-09T09:25:25.210Z,100274.86
2019-05-09T09:30:30.744Z,100271.46
2019-05-09T09:35:38.273Z,100266.96
2019-05-09T09:40:43.852Z,100268.51
2019-05-09T09:46:05.119Z,100268.56
2019-05-09T09:50:58.013Z,100264.05
2019-05-09T09:56:03.721Z,100260.41
2019-05-09T10:01:10.865Z,100264.92
2019-05-09T10:06:16.193Z,100262.87
2019-05-09T10:11:21.745Z,100259.44
2019-05-09T10:16:47.636Z,100230.19
2019-05-09T10:21:53.799Z,100240.84
2019-05-09T10:27:09.813Z,100241.39
2019-05-09T10:32:18.205Z,100248.78
2019-05-09T10:37:23.351Z,100256.70
2019-05-09T10:42:30.498Z,100229.68
2019-05-09T10:47:37.765Z,100219.56
2019-05-09T10:52:43.374Z,100228.11
2019-05-09T10:57:52.436Z,100216.03
2019-05-09T11:02:58.376Z,100212.36
2019-05-09T11:08:03.894Z,100212.28
2019-05-09T11:13:09.738Z,100215.25
2019-05-09T11:18:15.277Z,100216.61
2019-05-09T11:23:20.537Z,100216.23
2019-05-09T11:28:28.390Z,100213.86
2019-05-09T11:33:33.227Z,100214.13
2019-05-09T11:38:43.658Z,100212.89
2019-05-09T11:43:45.454Z,100210.16
2019-05-09T11:48:50.646Z,100216.21
2019-05-09T11:53:58.164Z,100206.23
2019-05-09T11:59:03.482Z,100206.49
2019-05-09T12:04:08.710Z,100209.79
2019-05-09T12:09:14.981Z,100223.73
2019-05-09T12:14:20.505Z,100221.72
2019-05-09T12:19:29.313Z,100210.37
2019-05-09T12:24:33.027Z,100210.41
2019-05-09T12:29:38.908Z,100211.08
2019-05-09T12:34:44.257Z,100215.45
2019-05-09T12:39:49.629Z,100196.23
2019-05-09T12:44:55.177Z,100195.11
2019-05-09T12:50:02.816Z,100191.91
2019-05-09T12:55:08.365Z,100196.94
2019-05-09T13:00:15.667Z,100179.78
2019-05-09T13:05:21.002Z,100195.81
2019-05-09T13:10:28.225Z,100191.91
2019-05-09T13:15:38.486Z,100195.59
2019-05-09T13:20:43.743Z,100188.73
2019-05-09T13:25:50.340Z,100194.62
2019-05-09T13:30:58.452Z,100199.89
2019-05-09T13:36:03.779Z,100186.47
2019-05-09T13:41:09.024Z,100188.84
2019-05-09T13:46:14.525Z,100175.64
2019-05-09T13:51:20.119Z,100193.39
2019-05-09T13:56:27.803Z,100187.06
2019-05-09T14:01:32.673Z,100188.84
2019-05-09T14:06:38.952Z,100198.61
2019-05-09T14:11:47.967Z,100203.61
2019-05-09T14:16:52.828Z,100202.77
2019-05-09T14:21:58.789Z,100194.17
2019-05-09T14:27:05.144Z,100197.66
2019-05-09T14:32:10.606Z,100205.08
2019-05-09T14:37:17.994Z,100209.55
2019-05-09T14:42:22.911Z,100205.27
2019-05-09T14:47:28.789Z,100210.22
2019-05-09T14:52:33.957Z,100216.92
2019-05-09T14:57:39.098Z,100219.78
2019-05-09T15:02:44.682Z,100216.72
2019-05-09T15:07:53.589Z,100223.77
2019-05-09T15:12:58.580Z,100216.54
2019-05-09T15:18:05.042Z,100220.07
2019-05-09T15:23:10.399Z,100221.38
2019-05-09T15:28:17.611Z,100229.35
2019-05-09T15:33:23.272Z,100236.03
2019-05-09T15:38:29.163Z,100222.89
2019-05-09T15:43:34.796Z,100222.91
2019-05-09T15:48:40.563Z,100222.91
2019-05-09T15:53:48.503Z,100223.34
2019-05-09T15:58:53.033Z,100224.28
2019-05-09T16:03:58.625Z,100231.72
2019-05-09T16:09:08.003Z,100232.20
2019-05-09T16:14:11.562Z,100229.58
2019-05-09T16:19:16.826Z,100230.89
2019-05-09T16:24:22.229Z,100233.09
2019-05-09T16:29:30.369Z,100225.23
2019-05-09T16:34:34.870Z,100217.36
2019-05-09T16:39:40.171Z,100225.20
2019-05-09T16:44:47.733Z,100228.69
2019-05-09T16:49:52.960Z,100227.84
2019-05-09T16:55:08.868Z,100229.95
2019-05-09T17:00:18.388Z,100231.77
2019-05-09T17:05:24.667Z,100231.70
2019-05-09T17:10:29.814Z,100240.89
2019-05-09T17:15:35.329Z,100239.56
2019-05-09T17:20:55.025Z,100245.25
2019-05-09T17:26:00.477Z,100243.47
2019-05-09T17:31:07.938Z,100242.58
2019-05-09T17:36:13.439Z,100235.14
2019-05-09T17:41:19.016Z,100238.98
2019-05-09T17:46:24.574Z,100240.27
2019-05-09T17:51:33.906Z,100248.56
2019-05-09T17:56:37.861Z,100242.01
2019-05-09T18:01:44.904Z,100244.15
2019-05-09T18:06:50.776Z,100248.96
2019-05-09T18:11:57.822Z,100244.66
2019-05-09T18:17:03.341Z,100255.08
2019-05-09T18:22:09.069Z,100239.80
2019-05-09T18:27:14.721Z,100247.23
2019-05-09T18:32:38.297Z,100253.34
2019-05-09T18:37:44.077Z,100256.39
2019-05-09T18:42:49.399Z,100258.06
2019-05-09T18:47:54.655Z,100250.18
2019-05-09T18:53:00.215Z,100249.69
2019-05-09T18:58:07.105Z,100251.88
2019-05-09T19:03:12.533Z,100250.08
2019-05-09T19:08:18.377Z,100249.27
2019-05-09T19:13:23.574Z,100243.18
2019-05-09T19:18:30.703Z,100253.52
2019-05-09T19:23:36.110Z,100253.55
2019-05-09T19:28:41.404Z,100255.97
2019-05-09T19:33:46.853Z,100248.70
2019-05-09T19:38:52.279Z,100238.66
2019-05-09T19:43:57.619Z,100251.73
2019-05-09T19:49:03.197Z,100243.05
2019-05-09T19:54:09.070Z,100230.73
2019-05-09T19:59:14.729Z,100246.39
2019-05-09T20:04:19.994Z,100240.73
2019-05-09T20:09:27.710Z,100249.85
2019-05-09T20:14:34.949Z,100247.23
2019-05-09T20:19:40.721Z,100249.47
2019-05-09T20:24:46.216Z,100256.44
2019-05-09T20:29:51.530Z,100254.23
2019-05-09T20:34:56.692Z,100253.13
2019-05-09T20:40:02.174Z,100251.82
2019-05-09T20:45:08.462Z,100245.37
2019-05-09T20:50:13.925Z,100240.98
2019-05-09T20:55:19.230Z,100247.98
2019-05-09T21:00:24.965Z,100235.19
2019-05-09T21:05:30.469Z,100231.45
2019-05-09T21:10:36.885Z,100220.10
2019-05-09T21:15:42.463Z,100221.37
2019-05-09T21:20:48.147Z,100222.63
2019-05-09T21:25:53.673Z,100224.83
2019-05-09T21:31:01.022Z,100226.69
2019-05-09T21:36:06.415Z,100228.80
2019-05-09T21:41:12.357Z,100238.88
2019-05-09T21:46:18.841Z,100242.34
2019-05-09T21:51:24.303Z,100240.56
2019-05-09T21:56:30.055Z,100243.14
2019-05-09T22:01:36.015Z,100247.95
2019-05-09T22:06:41.380Z,100247.48
2019-05-09T22:11:47.044Z,100263.16
2019-05-09T22:16:53.343Z,100258.45
2019-05-09T22:21:58.676Z,100250.13
2019-05-09T22:27:04.679Z,100254.05
2019-05-09T22:32:10.129Z,100251.73
2019-05-09T22:37:15.495Z,100249.20
2019-05-09T22:42:20.743Z,100251.30
2019-05-09T22:47:26.209Z,100250.45
2019-05-09T22:52:31.976Z,100244.23
2019-05-09T22:57:37.686Z,100246.91
2019-05-09T23:02:43.092Z,100246.70
2019-05-09T23:07:48.326Z,100245.33
2019-05-09T23:12:53.996Z,100243.14
2019-05-09T23:17:59.190Z,100243.53
2019-05-09T23:23:06.296Z,100243.02
2019-05-09T23:28:11.703Z,100237.72
2019-05-09T23:33:17.102Z,100244.72
2019-05-09T23:38:22.659Z,100250.78
2019-05-09T23:43:28.170Z,100247.00
2019-05-09T23:48:33.483Z,100244.39
2019-05-09T23:53:39.036Z,100251.38
2019-05-09T23:59:02.734Z,100242.72
